Time;durP1;ratioP1;P1;durP2;ratioP2;P2;SDS_P1;SDS_P2;PMS_P1;PMS_P2;Temp;Humidity;BMP_temperature;BMP_pressure;BME280_temperature;BME280_humidity;BME280_pressure;Samples;Min_cycle;Max_cycle;Signal;HPM_P1;HPM_P2
2022/05/19 00:02:15;;;;;;;26.13;22.85;;;;;;;;;;5103223;28;20036;-75
2022/05/19 00:04:41;;;;;;;26.23;23.52;;;;;;;;;;5103952;28;20080;-75
2022/05/19 00:07:08;;;;;;;26.52;23.33;;;;;;;;;;5094894;28;20089;-75
2022/05/19 00:09:35;;;;;;;29.23;25.35;;;;;;;;;;5094492;28;20063;-75
2022/05/19 00:12:02;;;;;;;27.30;24.40;;;;;;;;;;5103521;28;20147;-75
2022/05/19 00:14:28;;;;;;;27.63;23.10;;;;;;;;;;5091045;28;20040;-75
2022/05/19 00:16:57;;;;;;;28.92;23.80;;;;;;;;;;5090980;28;20044;-75
2022/05/19 00:19:24;;;;;;;24.33;21.70;;;;;;;;;;5078687;28;20103;-75
2022/05/19 00:21:51;;;;;;;26.67;22.67;;;;;;;;;;5111303;28;20044;-75
2022/05/19 00:24:17;;;;;;;23.10;20.60;;;;;;;;;;5099360;28;20403;-75
2022/05/19 00:26:43;;;;;;;25.30;21.38;;;;;;;;;;5106601;28;20039;-75
2022/05/19 00:29:10;;;;;;;28.27;23.33;;;;;;;;;;5107806;28;20036;-75
2022/05/19 00:31:36;;;;;;;25.17;22.25;;;;;;;;;;5090509;28;20140;-75
2022/05/19 00:34:03;;;;;;;24.63;21.90;;;;;;;;;;5095810;28;20048;-75
2022/05/19 00:36:30;;;;;;;26.90;22.27;;;;;;;;;;5100978;28;20521;-75
2022/05/19 00:38:56;;;;;;;25.80;22.17;;;;;;;;;;5091324;28;20052;-75
2022/05/19 00:41:22;;;;;;;27.88;23.60;;;;;;;;;;5085139;28;20036;-75
2022/05/19 00:43:59;;;;;;;26.15;22.25;;;;;;;;;;5090462;28;20073;-75
2022/05/19 00:46:29;;;;;;;24.30;21.30;;;;;;;;;;5073457;28;20136;-75
2022/05/19 00:48:57;;;;;;;25.35;21.73;;;;;;;;;;5078263;28;20075;-75
2022/05/19 00:51:41;;;;;;;27.33;24.00;;;;;;;;;;5102378;28;20048;-75
2022/05/19 00:54:09;;;;;;;30.70;27.20;;;;;;;;;;5104953;28;20043;-75
2022/05/19 00:56:44;;;;;;;32.50;28.83;;;;;;;;;;5094040;28;20108;-75
2022/05/19 00:59:11;;;;;;;36.53;31.65;;;;;;;;;;5102970;28;20044;-75
2022/05/19 01:01:42;;;;;;;37.90;33.85;;;;;;;;;;5101674;28;20043;-75
2022/05/19 01:04:30;;;;;;;34.28;30.50;;;;;;;;;;5094307;28;20119;-75
2022/05/19 01:06:58;;;;;;;33.13;29.58;;;;;;;;;;5083268;28;20042;-75
2022/05/19 01:09:24;;;;;;;37.67;33.05;;;;;;;;;;5099269;28;20557;-75
2022/05/19 01:11:55;;;;;;;39.85;34.38;;;;;;;;;;5090132;28;20039;-75
2022/05/19 01:14:22;;;;;;;41.53;36.20;;;;;;;;;;5106655;28;20040;-75
2022/05/19 01:16:48;;;;;;;41.80;37.30;;;;;;;;;;5097196;28;20036;-75
2022/05/19 01:19:24;;;;;;;38.72;34.45;;;;;;;;;;5110273;28;20093;-75
2022/05/19 01:22:04;;;;;;;41.13;33.95;;;;;;;;;;5093798;28;20044;-75
2022/05/19 01:24:33;;;;;;;42.45;37.60;;;;;;;;;;5090006;28;20040;-75
2022/05/19 01:27:05;;;;;;;45.55;40.53;;;;;;;;;;5089594;28;20032;-74
2022/05/19 01:29:31;;;;;;;48.67;42.55;;;;;;;;;;5104340;28;20039;-75
2022/05/19 01:32:02;;;;;;;48.75;42.13;;;;;;;;;;5093142;28;20078;-75
2022/05/19 01:34:30;;;;;;;45.92;40.65;;;;;;;;;;5103148;28;20075;-75
2022/05/19 01:36:56;;;;;;;47.55;41.85;;;;;;;;;;5083503;28;20094;-75
2022/05/19 01:39:25;;;;;;;54.53;46.92;;;;;;;;;;5094625;28;20043;-75
2022/05/19 01:42:10;;;;;;;51.13;45.50;;;;;;;;;;5105710;28;20402;-75
2022/05/19 01:44:52;;;;;;;55.47;47.20;;;;;;;;;;5082123;28;20352;-75
2022/05/19 01:47:18;;;;;;;56.10;49.50;;;;;;;;;;5094593;28;20384;-75
2022/05/19 01:49:48;;;;;;;57.47;51.15;;;;;;;;;;5085321;28;20051;-75
2022/05/19 01:52:25;;;;;;;52.25;46.05;;;;;;;;;;5102317;28;20055;-75
2022/05/19 01:55:04;;;;;;;59.25;52.80;;;;;;;;;;5102071;28;20054;-75
2022/05/19 01:57:31;;;;;;;59.70;52.92;;;;;;;;;;5073368;28;20500;-75
2022/05/19 02:00:00;;;;;;;58.42;51.72;;;;;;;;;;5092593;28;20475;-75
2022/05/19 02:02:41;;;;;;;64.80;56.20;;;;;;;;;;5082195;28;20090;-75
2022/05/19 02:05:11;;;;;;;56.92;50.70;;;;;;;;;;5105558;28;20043;-75
2022/05/19 02:07:39;;;;;;;64.32;57.10;;;;;;;;;;5093724;28;20046;-75
2022/05/19 02:10:08;;;;;;;67.78;59.15;;;;;;;;;;5109597;28;20136;-75
2022/05/19 02:12:34;;;;;;;58.05;51.90;;;;;;;;;;5109510;28;20031;-75
2022/05/19 02:15:03;;;;;;;66.32;58.58;;;;;;;;;;5092869;28;20412;-75
2022/05/19 02:17:31;;;;;;;66.47;59.28;;;;;;;;;;5109653;28;20524;-75
2022/05/19 02:19:59;;;;;;;65.45;58.38;;;;;;;;;;5109642;28;20040;-75
2022/05/19 02:22:28;;;;;;;65.82;58.83;;;;;;;;;;5097730;28;20433;-75
2022/05/19 02:24:57;;;;;;;59.28;53.05;;;;;;;;;;5109652;28;20039;-75
2022/05/19 02:27:34;;;;;;;58.78;52.28;;;;;;;;;;5098733;28;20498;-75
2022/05/19 02:30:06;;;;;;;66.18;58.35;;;;;;;;;;5102978;28;20036;-75
2022/05/19 02:32:32;;;;;;;62.70;56.10;;;;;;;;;;5108525;28;20058;-75
2022/05/19 02:34:58;;;;;;;63.42;56.40;;;;;;;;;;5096503;28;20062;-75
2022/05/19 02:37:24;;;;;;;66.63;59.45;;;;;;;;;;5113126;28;20565;-75
2022/05/19 02:39:50;;;;;;;66.63;59.55;;;;;;;;;;5102172;28;20123;-75
2022/05/19 02:42:16;;;;;;;67.35;60.13;;;;;;;;;;5107409;28;20047;-75
2022/05/19 02:44:43;;;;;;;68.93;61.40;;;;;;;;;;5096702;28;20493;-75
2022/05/19 02:47:09;;;;;;;67.80;60.42;;;;;;;;;;5089908;28;20115;-75
2022/05/19 02:49:35;;;;;;;64.82;57.83;;;;;;;;;;5085994;28;20058;-75
2022/05/19 02:52:02;;;;;;;68.05;60.10;;;;;;;;;;5099020;28;20051;-75
2022/05/19 02:54:28;;;;;;;72.45;64.32;;;;;;;;;;5108975;28;20039;-75
2022/05/19 02:56:54;;;;;;;66.82;58.50;;;;;;;;;;5098014;28;20422;-75
2022/05/19 02:59:20;;;;;;;73.00;65.00;;;;;;;;;;5103396;28;20040;-75
2022/05/19 03:01:47;;;;;;;73.65;65.90;;;;;;;;;;5105645;28;20044;-75
2022/05/19 03:04:13;;;;;;;77.68;67.68;;;;;;;;;;5079382;28;20036;-74
2022/05/19 03:06:39;;;;;;;74.28;64.78;;;;;;;;;;5107979;28;20036;-75
2022/05/19 03:09:05;;;;;;;80.68;71.97;;;;;;;;;;5084182;28;20782;-75
2022/05/19 03:11:31;;;;;;;88.00;77.20;;;;;;;;;;5111500;28;20569;-75
2022/05/19 03:13:57;;;;;;;78.43;70.07;;;;;;;;;;5112526;28;20045;-75
2022/05/19 03:16:24;;;;;;;75.38;66.63;;;;;;;;;;5096235;28;20039;-75
2022/05/19 03:18:50;;;;;;;82.47;73.10;;;;;;;;;;5104358;28;20043;-75
2022/05/19 03:21:22;;;;;;;75.05;67.10;;;;;;;;;;5103811;28;20035;-75
2022/05/19 03:23:49;;;;;;;87.45;77.40;;;;;;;;;;5095746;28;20036;-75
2022/05/19 03:26:15;;;;;;;72.38;64.90;;;;;;;;;;5096236;28;20042;-75
2022/05/19 03:28:41;;;;;;;72.40;63.75;;;;;;;;;;5104295;28;20574;-75
2022/05/19 03:31:09;;;;;;;90.75;76.82;;;;;;;;;;5104163;28;20052;-75
2022/05/19 03:33:35;;;;;;;72.20;64.38;;;;;;;;;;5093024;28;20071;-75
2022/05/19 03:36:02;;;;;;;73.20;64.65;;;;;;;;;;5096880;28;20066;-75
2022/05/19 03:38:28;;;;;;;73.82;65.43;;;;;;;;;;5095441;28;20057;-75
2022/05/19 03:40:54;;;;;;;76.53;66.78;;;;;;;;;;5112099;28;20475;-75
2022/05/19 03:43:21;;;;;;;82.60;73.50;;;;;;;;;;5079663;28;20036;-75
2022/05/19 03:45:47;;;;;;;83.35;71.32;;;;;;;;;;5110951;28;20123;-74
2022/05/19 03:48:23;;;;;;;79.13;70.55;;;;;;;;;;5112157;28;20757;-74
2022/05/19 03:50:50;;;;;;;80.10;71.35;;;;;;;;;;5082819;28;20048;-74
2022/05/19 03:53:16;;;;;;;80.22;69.93;;;;;;;;;;5107624;28;20035;-75
2022/05/19 03:55:42;;;;;;;66.95;59.70;;;;;;;;;;5108117;28;20113;-74
2022/05/19 03:58:08;;;;;;;70.15;62.72;;;;;;;;;;5098824;28;20037;-74
2022/05/19 04:00:34;;;;;;;63.60;56.80;;;;;;;;;;5100091;28;20415;-75
2022/05/19 04:03:01;;;;;;;74.15;64.38;;;;;;;;;;5102005;28;20085;-75
2022/05/19 04:05:28;;;;;;;73.00;62.67;;;;;;;;;;5070910;28;20038;-74
2022/05/19 04:07:54;;;;;;;71.40;63.53;;;;;;;;;;5104334;28;20040;-75
2022/05/19 04:10:20;;;;;;;71.45;61.75;;;;;;;;;;5102031;28;20128;-75
2022/05/19 04:12:47;;;;;;;78.78;66.38;;;;;;;;;;5096661;28;20098;-74
2022/05/19 04:15:13;;;;;;;80.32;71.40;;;;;;;;;;5107776;28;20530;-73
2022/05/19 04:17:39;;;;;;;73.57;63.85;;;;;;;;;;5097527;28;20051;-74
2022/05/19 04:20:07;;;;;;;73.95;62.72;;;;;;;;;;5100747;28;20040;-74
2022/05/19 04:22:33;;;;;;;75.93;65.55;;;;;;;;;;5090926;28;20450;-73
2022/05/19 04:25:00;;;;;;;77.65;65.57;;;;;;;;;;5109295;28;20042;-74
2022/05/19 04:27:27;;;;;;;75.13;64.93;;;;;;;;;;5105240;28;20614;-74
2022/05/19 04:29:54;;;;;;;68.80;61.25;;;;;;;;;;5100982;28;20044;-74
2022/05/19 04:32:20;;;;;;;65.82;58.70;;;;;;;;;;5094420;28;20071;-73
2022/05/19 04:34:46;;;;;;;76.93;65.28;;;;;;;;;;5108692;28;20146;-74
2022/05/19 04:37:13;;;;;;;73.90;62.95;;;;;;;;;;5105247;28;20052;-73
2022/05/19 04:39:39;;;;;;;79.68;68.32;;;;;;;;;;5083168;28;20398;-73
2022/05/19 04:42:09;;;;;;;80.55;68.72;;;;;;;;;;5110861;28;20042;-73
2022/05/19 04:44:36;;;;;;;80.10;68.03;;;;;;;;;;5091244;28;20690;-73
2022/05/19 04:47:02;;;;;;;78.82;66.05;;;;;;;;;;5086582;28;20036;-73
2022/05/19 04:49:29;;;;;;;77.97;66.95;;;;;;;;;;5110203;28;20050;-73
2022/05/19 04:51:56;;;;;;;84.88;70.93;;;;;;;;;;5095295;28;20043;-73
2022/05/19 04:54:22;;;;;;;90.10;74.03;;;;;;;;;;5105136;28;20039;-72
2022/05/19 04:56:48;;;;;;;79.95;67.90;;;;;;;;;;5093046;28;20042;-74
2022/05/19 04:59:14;;;;;;;74.82;63.83;;;;;;;;;;5100635;28;20487;-73
2022/05/19 05:01:48;;;;;;;73.45;63.95;;;;;;;;;;5100875;28;20042;-73
2022/05/19 05:04:15;;;;;;;79.95;66.22;;;;;;;;;;5092131;28;20062;-73
2022/05/19 05:06:41;;;;;;;81.00;68.32;;;;;;;;;;5103662;28;20104;-74
2022/05/19 05:09:08;;;;;;;76.55;65.10;;;;;;;;;;5096515;28;20151;-74
2022/05/19 05:11:34;;;;;;;81.63;69.72;;;;;;;;;;5082992;28;20067;-75
2022/05/19 05:14:00;;;;;;;82.28;66.50;;;;;;;;;;5101322;28;20043;-74
2022/05/19 05:16:26;;;;;;;79.68;65.93;;;;;;;;;;5075954;28;20050;-71
2022/05/19 05:18:52;;;;;;;79.88;67.05;;;;;;;;;;5100216;28;20406;-71
2022/05/19 05:21:18;;;;;;;82.57;68.78;;;;;;;;;;5099675;28;20077;-71
2022/05/19 05:23:45;;;;;;;81.90;68.88;;;;;;;;;;5085303;28;20544;-71
2022/05/19 05:26:11;;;;;;;84.20;70.68;;;;;;;;;;5077529;28;20253;-71
2022/05/19 05:28:37;;;;;;;75.50;63.13;;;;;;;;;;5100354;28;20040;-70
2022/05/19 05:31:04;;;;;;;77.60;65.53;;;;;;;;;;5096928;28;20054;-71
2022/05/19 05:33:31;;;;;;;76.47;66.50;;;;;;;;;;5082489;28;20050;-71
2022/05/19 05:35:57;;;;;;;76.07;63.30;;;;;;;;;;5091329;28;20089;-71
2022/05/19 05:38:24;;;;;;;66.70;59.38;;;;;;;;;;5084187;28;20056;-71
2022/05/19 05:40:50;;;;;;;65.55;56.30;;;;;;;;;;5089966;28;20119;-72
2022/05/19 05:43:18;;;;;;;68.07;59.10;;;;;;;;;;5089861;28;20036;-71
2022/05/19 05:45:45;;;;;;;71.80;58.75;;;;;;;;;;5094396;28;20173;-71
2022/05/19 05:48:12;;;;;;;62.75;55.03;;;;;;;;;;5080472;28;20037;-71
2022/05/19 05:50:38;;;;;;;66.15;57.50;;;;;;;;;;5055895;28;20668;-72
2022/05/19 05:53:05;;;;;;;61.20;53.13;;;;;;;;;;5096871;28;20521;-71
2022/05/19 05:55:31;;;;;;;56.28;49.17;;;;;;;;;;5090928;28;20142;-72
2022/05/19 05:57:57;;;;;;;55.25;49.35;;;;;;;;;;5101309;28;20040;-72
2022/05/19 06:00:24;;;;;;;54.33;47.17;;;;;;;;;;5097833;28;20040;-71
2022/05/19 06:02:50;;;;;;;48.80;43.47;;;;;;;;;;5093591;28;20510;-72
2022/05/19 06:05:17;;;;;;;43.10;37.92;;;;;;;;;;5104355;28;20585;-72
2022/05/19 06:07:43;;;;;;;41.47;35.60;;;;;;;;;;5093284;28;20043;-71
2022/05/19 06:10:10;;;;;;;38.95;34.78;;;;;;;;;;5097932;28;20040;-73
2022/05/19 06:12:37;;;;;;;34.42;30.73;;;;;;;;;;5101537;28;20043;-72
2022/05/19 06:15:03;;;;;;;32.63;28.92;;;;;;;;;;5090871;28;20036;-72
2022/05/19 06:17:29;;;;;;;34.47;29.13;;;;;;;;;;5085670;28;20032;-72
2022/05/19 06:19:55;;;;;;;32.13;28.63;;;;;;;;;;5096243;28;20114;-72
2022/05/19 06:22:22;;;;;;;31.42;28.10;;;;;;;;;;5094030;28;20048;-72
2022/05/19 06:24:49;;;;;;;32.10;28.13;;;;;;;;;;5103544;28;20398;-72
2022/05/19 06:27:15;;;;;;;32.75;29.33;;;;;;;;;;5091718;28;20032;-72
2022/05/19 06:29:42;;;;;;;29.80;26.70;;;;;;;;;;5098521;28;20036;-72
2022/05/19 06:32:08;;;;;;;30.13;26.98;;;;;;;;;;5083452;28;20745;-72
2022/05/19 06:34:34;;;;;;;30.55;27.30;;;;;;;;;;5091139;28;20073;-72
2022/05/19 06:37:02;;;;;;;31.73;25.98;;;;;;;;;;5102967;28;20044;-71
2022/05/19 06:39:28;;;;;;;28.55;25.45;;;;;;;;;;5094960;28;20126;-72
2022/05/19 06:42:00;;;;;;;28.00;25.02;;;;;;;;;;5094973;28;20062;-72
2022/05/19 06:44:40;;;;;;;27.92;23.83;;;;;;;;;;5103358;28;20061;-72
2022/05/19 06:47:13;;;;;;;30.17;26.40;;;;;;;;;;5076737;28;20039;-73
2022/05/19 06:49:55;;;;;;;27.98;24.25;;;;;;;;;;5079341;28;20063;-72
2022/05/19 06:52:22;;;;;;;26.90;24.00;;;;;;;;;;5103277;28;20048;-71
2022/05/19 06:54:49;;;;;;;27.58;24.38;;;;;;;;;;5091622;28;20487;-71
2022/05/19 06:57:16;;;;;;;28.85;24.95;;;;;;;;;;5095965;28;20131;-71
2022/05/19 06:59:43;;;;;;;29.10;26.00;;;;;;;;;;5094172;28;20048;-72
2022/05/19 07:02:10;;;;;;;29.05;25.92;;;;;;;;;;5103149;28;20039;-71
2022/05/19 07:04:36;;;;;;;26.75;23.90;;;;;;;;;;5091009;28;20035;-72
2022/05/19 07:07:04;;;;;;;30.08;25.40;;;;;;;;;;5098707;28;20048;-71
2022/05/19 07:09:31;;;;;;;32.65;25.23;;;;;;;;;;5102820;28;20047;-72
2022/05/19 07:11:57;;;;;;;29.67;26.48;;;;;;;;;;5094624;28;20522;-71
2022/05/19 07:14:29;;;;;;;28.65;25.60;;;;;;;;;;5107160;28;20078;-72
2022/05/19 07:16:55;;;;;;;29.25;26.17;;;;;;;;;;5099505;28;20146;-71
2022/05/19 07:22:07;;;;;;;;;;;;;;;;;;5093827;28;20044;-71
2022/05/19 07:24:33;;;;;;;29.27;26.27;;;;;;;;;;5103917;28;19919;-72
2022/05/19 07:27:00;;;;;;;30.65;27.30;;;;;;;;;;5101226;28;20369;-72
2022/05/19 07:29:27;;;;;;;30.45;27.15;;;;;;;;;;5078677;28;20069;-72
2022/05/19 07:31:55;;;;;;;32.03;28.05;;;;;;;;;;5106830;28;20050;-73
2022/05/19 07:34:22;;;;;;;32.47;29.02;;;;;;;;;;5079924;28;20047;-73
2022/05/19 07:36:49;;;;;;;30.95;27.75;;;;;;;;;;5099595;28;20079;-73
2022/05/19 07:39:15;;;;;;;30.98;27.88;;;;;;;;;;5104868;28;20396;-72
2022/05/19 07:41:44;;;;;;;30.17;26.95;;;;;;;;;;5093985;28;20576;-73
2022/05/19 07:44:11;;;;;;;31.40;28.15;;;;;;;;;;5103738;28;20036;-73
2022/05/19 07:46:37;;;;;;;30.98;27.77;;;;;;;;;;5083581;28;20119;-74
2022/05/19 07:49:03;;;;;;;36.10;30.13;;;;;;;;;;5110141;28;20043;-74
2022/05/19 07:51:36;;;;;;;32.97;29.05;;;;;;;;;;5093898;28;20048;-74
2022/05/19 07:54:03;;;;;;;36.22;32.55;;;;;;;;;;5103468;28;20419;-74
2022/05/19 07:56:30;;;;;;;35.70;31.23;;;;;;;;;;5100823;28;20086;-73
2022/05/19 07:58:56;;;;;;;37.72;33.70;;;;;;;;;;5095246;28;20047;-74
2022/05/19 08:01:22;;;;;;;36.63;32.83;;;;;;;;;;5105726;28;20043;-74
2022/05/19 08:03:48;;;;;;;37.30;33.35;;;;;;;;;;5095832;28;20043;-74
2022/05/19 08:06:15;;;;;;;31.50;28.20;;;;;;;;;;5099488;28;20036;-75
2022/05/19 08:08:41;;;;;;;37.65;33.80;;;;;;;;;;5103410;28;20114;-74
2022/05/19 08:11:07;;;;;;;35.05;31.38;;;;;;;;;;5081309;28;20051;-73
2022/05/19 08:16:19;;;;;;;35.38;31.60;;;;;;;;;;5097348;28;20044;-72
2022/05/19 08:18:45;;;;;;;35.08;31.48;;;;;;;;;;5105504;28;20092;-73
2022/05/19 08:21:12;;;;;;;31.67;28.35;;;;;;;;;;5091718;28;20354;-73
2022/05/19 08:23:40;;;;;;;28.55;25.63;;;;;;;;;;5101837;28;20032;-73
2022/05/19 08:26:10;;;;;;;30.38;27.17;;;;;;;;;;5100776;28;20297;-72
2022/05/19 08:28:36;;;;;;;27.23;24.38;;;;;;;;;;5093050;28;20047;-72
2022/05/19 08:31:07;;;;;;;31.08;27.23;;;;;;;;;;5076285;28;20040;-72
2022/05/19 08:33:34;;;;;;;29.20;26.45;;;;;;;;;;5100618;28;20100;-73
2022/05/19 08:36:00;;;;;;;27.88;24.88;;;;;;;;;;5101498;28;20052;-72
2022/05/19 08:38:26;;;;;;;31.45;28.10;;;;;;;;;;5093225;28;20169;-72
2022/05/19 08:40:56;;;;;;;32.03;28.92;;;;;;;;;;5076404;28;20046;-73
2022/05/19 08:43:24;;;;;;;31.42;28.10;;;;;;;;;;5100507;28;20067;-72
2022/05/19 08:45:54;;;;;;;33.65;30.25;;;;;;;;;;5101085;28;20044;-72
2022/05/19 08:48:22;;;;;;;31.13;27.80;;;;;;;;;;5092133;28;20051;-73
2022/05/19 08:50:54;;;;;;;30.95;27.77;;;;;;;;;;5104150;28;20044;-72
2022/05/19 08:53:24;;;;;;;30.98;27.77;;;;;;;;;;5098090;28;20046;-72
2022/05/19 08:55:55;;;;;;;32.33;29.02;;;;;;;;;;5095032;28;20067;-72
2022/05/19 08:58:29;;;;;;;30.98;27.80;;;;;;;;;;5104831;28;20126;-72
2022/05/19 09:00:59;;;;;;;28.52;25.60;;;;;;;;;;5095499;28;20349;-72
2022/05/19 09:03:38;;;;;;;28.17;25.27;;;;;;;;;;5080409;28;20042;-72
2022/05/19 09:06:17;;;;;;;27.25;24.52;;;;;;;;;;5104776;28;20035;-72
2022/05/19 09:08:49;;;;;;;28.15;25.15;;;;;;;;;;5094779;28;20044;-72
2022/05/19 09:11:18;;;;;;;24.30;21.75;;;;;;;;;;5097156;28;20036;-72
2022/05/19 09:14:09;;;;;;;24.52;21.98;;;;;;;;;;5086648;28;20078;-72
2022/05/19 09:16:38;;;;;;;26.27;23.55;;;;;;;;;;5064137;28;20467;-72
2022/05/19 09:19:26;;;;;;;26.60;23.73;;;;;;;;;;5091557;28;20035;-72
2022/05/19 09:22:15;;;;;;;25.23;22.63;;;;;;;;;;5091552;28;20041;-72
2022/05/19 09:24:44;;;;;;;22.98;20.65;;;;;;;;;;5075492;28;20483;-72
2022/05/19 09:27:11;;;;;;;23.30;20.90;;;;;;;;;;5100801;28;20035;-72
2022/05/19 09:29:41;;;;;;;22.80;19.77;;;;;;;;;;5091574;28;20039;-72
2022/05/19 09:32:12;;;;;;;22.80;20.40;;;;;;;;;;5103144;28;20040;-72
2022/05/19 09:34:41;;;;;;;24.60;22.10;;;;;;;;;;5097083;28;20043;-73
2022/05/19 09:37:07;;;;;;;21.85;19.63;;;;;;;;;;5094134;28;20453;-72
2022/05/19 09:39:35;;;;;;;20.42;17.63;;;;;;;;;;5087172;28;20086;-73
2022/05/19 09:42:12;;;;;;;27.75;22.90;;;;;;;;;;5075978;28;20437;-74
2022/05/19 09:44:48;;;;;;;22.45;20.05;;;;;;;;;;5097274;28;20044;-73
2022/05/19 09:47:16;;;;;;;24.83;22.15;;;;;;;;;;5103645;28;20473;-73
2022/05/19 09:49:49;;;;;;;23.30;21.00;;;;;;;;;;5058201;28;20063;-72
2022/05/19 09:52:17;;;;;;;21.23;18.98;;;;;;;;;;5099303;28;20434;-73
2022/05/19 09:54:45;;;;;;;24.70;22.20;;;;;;;;;;5100211;28;20067;-73
2022/05/19 09:57:14;;;;;;;23.48;21.05;;;;;;;;;;5074230;28;20047;-74
2022/05/19 09:59:48;;;;;;;22.10;19.95;;;;;;;;;;5102880;28;20123;-74
2022/05/19 10:02:17;;;;;;;22.73;19.33;;;;;;;;;;5097032;28;20273;-74
2022/05/19 10:04:49;;;;;;;24.23;21.05;;;;;;;;;;5093250;28;20075;-73
2022/05/19 10:07:24;;;;;;;21.60;19.40;;;;;;;;;;5103860;28;20040;-73
2022/05/19 10:09:50;;;;;;;;;;;;;;;;;;5095628;28;20043;-73
2022/05/19 10:12:22;;;;;;;19.90;17.60;;;;;;;;;;5078952;28;19916;-73
2022/05/19 10:15:08;;;;;;;19.48;17.02;;;;;;;;;;5103839;28;20495;-73
2022/05/19 10:17:54;;;;;;;19.20;16.02;;;;;;;;;;5080217;28;20067;-73
2022/05/19 10:20:21;;;;;;;21.33;18.63;;;;;;;;;;5094203;28;20048;-73
2022/05/19 10:23:06;;;;;;;22.17;18.63;;;;;;;;;;5103410;28;20056;-73
2022/05/19 10:25:32;;;;;;;;;;;;;;;;;;5095204;28;20401;-72
2022/05/19 10:31:04;;;;;;;18.48;16.50;;;;;;;;;;5103617;28;20193;-73
2022/05/19 10:33:49;;;;;;;18.38;16.15;;;;;;;;;;5096028;28;20556;-73
2022/05/19 10:36:19;;;;;;;19.55;16.52;;;;;;;;;;5092452;28;20136;-73
2022/05/19 10:38:45;;;;;;;19.08;17.15;;;;;;;;;;5086819;28;20130;-73
2022/05/19 10:41:44;;;;;;;19.33;17.20;;;;;;;;;;5081130;28;20040;-73
2022/05/19 10:44:23;;;;;;;20.20;18.30;;;;;;;;;;5082155;28;20059;-73
2022/05/19 10:46:57;;;;;;;20.40;18.30;;;;;;;;;;5079688;28;20515;-72
2022/05/19 10:49:30;;;;;;;19.38;17.38;;;;;;;;;;5102171;28;20495;-72
2022/05/19 10:52:03;;;;;;;20.35;18.20;;;;;;;;;;5105395;28;20051;-73
2022/05/19 10:54:35;;;;;;;22.45;20.15;;;;;;;;;;5094948;28;20521;-72
2022/05/19 10:57:01;;;;;;;18.20;16.30;;;;;;;;;;5104007;28;20040;-73
2022/05/19 10:59:37;;;;;;;22.27;20.02;;;;;;;;;;5102472;28;20066;-72
2022/05/19 11:02:03;;;;;;;22.13;19.75;;;;;;;;;;5094548;28;20539;-77
2022/05/19 11:04:32;;;;;;;21.63;19.42;;;;;;;;;;5107355;28;20085;-73
2022/05/19 11:07:11;;;;;;;19.88;17.88;;;;;;;;;;5099572;28;20119;-73
2022/05/19 11:09:57;;;;;;;27.25;24.55;;;;;;;;;;5096906;28;20036;-74
2022/05/19 11:12:36;;;;;;;25.05;22.65;;;;;;;;;;5080317;28;20040;-72
2022/05/19 11:15:21;;;;;;;26.38;23.63;;;;;;;;;;5100677;28;20043;-73
2022/05/19 11:18:00;;;;;;;26.02;23.42;;;;;;;;;;5107141;28;20032;-74
2022/05/19 11:20:35;;;;;;;26.48;23.88;;;;;;;;;;5096447;28;20049;-74
2022/05/19 11:23:13;;;;;;;26.90;24.25;;;;;;;;;;5082582;28;20031;-73
2022/05/19 11:28:39;;;;;;;26.83;24.23;;;;;;;;;;5098332;28;20427;-73
2022/05/19 11:31:16;;;;;;;27.48;24.63;;;;;;;;;;5098149;28;20044;-72
2022/05/19 11:33:45;;;;;;;24.02;21.60;;;;;;;;;;5107131;28;20043;-73
2022/05/19 11:36:21;;;;;;;26.77;24.08;;;;;;;;;;5079036;28;20052;-75
2022/05/19 11:39:00;;;;;;;21.73;19.60;;;;;;;;;;5098980;28;20052;-74
2022/05/19 11:41:29;;;;;;;21.00;18.85;;;;;;;;;;5106599;28;20525;-73
2022/05/19 11:44:14;;;;;;;21.25;17.98;;;;;;;;;;5095110;28;20067;-73
2022/05/19 11:46:45;;;;;;;21.00;18.80;;;;;;;;;;5093726;28;20031;-74
2022/05/19 11:55:14;;;;;;;15.98;13.77;;;;;;;;;;5091122;28;19969;-74
2022/05/19 11:57:47;;;;;;;15.02;12.80;;;;;;;;;;5079296;28;20232;-74
2022/05/19 12:00:19;;;;;;;15.90;12.88;;;;;;;;;;5100126;28;20081;-73
2022/05/19 12:02:50;;;;;;;15.38;12.15;;;;;;;;;;5104370;28;20118;-73
2022/05/19 12:05:28;;;;;;;17.98;14.35;;;;;;;;;;5093374;28;20036;-73
2022/05/19 12:08:00;;;;;;;15.05;11.05;;;;;;;;;;5084539;28;20179;-73
2022/05/19 12:10:31;;;;;;;14.27;11.25;;;;;;;;;;5102297;28;20081;-74
2022/05/19 12:13:00;;;;;;;13.63;11.60;;;;;;;;;;5093631;28;20521;-74
2022/05/19 12:15:32;;;;;;;12.13;9.02;;;;;;;;;;5104431;28;20036;-74
2022/05/19 12:18:00;;;;;;;11.80;8.32;;;;;;;;;;5099768;28;20042;-74
2022/05/19 12:20:45;;;;;;;11.18;9.80;;;;;;;;;;5094938;28;20043;-74
2022/05/19 12:23:30;;;;;;;11.07;8.23;;;;;;;;;;5077950;28;20063;-74
2022/05/19 12:26:02;;;;;;;13.93;11.18;;;;;;;;;;5098964;28;20395;-73
2022/05/19 12:28:28;;;;;;;11.32;10.10;;;;;;;;;;5105222;28;20040;-73
2022/05/19 12:33:49;;;;;;;9.75;7.55;;;;;;;;;;5099690;28;20051;-75
2022/05/19 12:36:31;;;;;;;11.05;7.38;;;;;;;;;;5087303;28;20445;-74
2022/05/19 12:39:27;;;;;;;11.55;7.18;;;;;;;;;;5078842;28;20190;-74
2022/05/19 12:41:55;;;;;;;10.55;8.05;;;;;;;;;;5087410;28;20173;-72
2022/05/19 12:44:39;;;;;;;8.88;6.68;;;;;;;;;;5090049;28;20190;-74
2022/05/19 12:47:05;;;;;;;8.73;6.70;;;;;;;;;;5085300;28;20082;-74
2022/05/19 12:49:33;;;;;;;9.32;6.72;;;;;;;;;;5099714;28;20538;-74
2022/05/19 12:52:01;;;;;;;9.52;7.00;;;;;;;;;;5093676;28;20083;-74
2022/05/19 12:54:29;;;;;;;8.95;6.53;;;;;;;;;;5105001;28;20045;-74
2022/05/19 12:56:55;;;;;;;10.80;7.28;;;;;;;;;;5095292;28;20043;-74
2022/05/19 12:59:40;;;;;;;8.30;6.43;;;;;;;;;;5098088;28;20032;-75
2022/05/19 13:02:07;;;;;;;;;;;;;;;;;;5105336;28;20057;-73
2022/05/19 13:04:36;;;;;;;16.38;7.47;;;;;;;;;;5093233;28;19920;-74
2022/05/19 13:07:14;;;;;;;42.00;9.48;;;;;;;;;;5098743;28;20566;-74
2022/05/19 13:09:40;;;;;;;70.90;11.45;;;;;;;;;;5085724;28;20451;-74
2022/05/19 13:12:11;;;;;;;47.95;9.70;;;;;;;;;;5104597;28;20346;-74
2022/05/19 13:14:44;;;;;;;20.17;8.45;;;;;;;;;;5078477;28;20435;-73
2022/05/19 13:17:12;;;;;;;11.65;8.20;;;;;;;;;;5096530;28;20040;-73
2022/05/19 13:19:41;;;;;;;9.48;8.10;;;;;;;;;;5104441;28;20036;-75
2022/05/19 13:22:09;;;;;;;14.50;11.43;;;;;;;;;;5075552;28;20047;-75
2022/05/19 13:24:37;;;;;;;15.90;10.50;;;;;;;;;;5100117;28;20039;-75
2022/05/19 13:32:36;;;;;;;10.98;7.18;;;;;;;;;;5108522;28;20046;-76
2022/05/19 13:35:09;;;;;;;10.60;6.70;;;;;;;;;;5077879;28;20051;-75
2022/05/19 13:37:35;;;;;;;13.38;7.40;;;;;;;;;;5104349;28;20054;-74
2022/05/19 13:40:28;;;;;;;14.32;6.97;;;;;;;;;;5093353;28;20059;-73
2022/05/19 13:42:57;;;;;;;11.60;6.60;;;;;;;;;;5094935;28;20036;-73
2022/05/19 13:45:24;;;;;;;10.90;6.50;;;;;;;;;;5087468;28;20040;-74
2022/05/19 13:47:51;;;;;;;11.68;5.82;;;;;;;;;;5093054;28;20118;-73
2022/05/19 13:50:26;;;;;;;9.65;5.57;;;;;;;;;;5081880;28;20036;-73
2022/05/19 13:52:54;;;;;;;12.02;6.00;;;;;;;;;;5101758;28;20118;-73
2022/05/19 13:55:25;;;;;;;8.57;5.07;;;;;;;;;;5091093;28;20039;-73
2022/05/19 13:57:52;;;;;;;14.32;6.38;;;;;;;;;;5084432;28;20450;-74
2022/05/19 14:00:19;;;;;;;13.27;6.32;;;;;;;;;;5098525;28;20445;-74
2022/05/19 14:02:52;;;;;;;11.93;5.90;;;;;;;;;;5093118;28;20048;-74
2022/05/19 14:05:21;;;;;;;17.95;6.72;;;;;;;;;;5103863;28;20093;-73
2022/05/19 14:07:49;;;;;;;10.18;6.05;;;;;;;;;;5095429;28;20082;-74
2022/05/19 14:10:17;;;;;;;13.63;6.22;;;;;;;;;;5078796;28;20036;-74
2022/05/19 14:12:52;;;;;;;20.00;9.27;;;;;;;;;;5103519;28;20089;-74
2022/05/19 14:15:19;;;;;;;11.55;6.53;;;;;;;;;;5071473;28;20043;-74
2022/05/19 14:18:04;;;;;;;15.45;6.55;;;;;;;;;;5077946;28;20050;-74
2022/05/19 14:20:44;;;;;;;11.02;6.45;;;;;;;;;;5092316;28;20055;-73
2022/05/19 14:23:17;;;;;;;13.25;6.78;;;;;;;;;;5076049;28;20035;-73
2022/05/19 14:25:44;;;;;;;12.90;7.28;;;;;;;;;;5107391;28;20062;-73
2022/05/19 14:28:13;;;;;;;11.00;7.35;;;;;;;;;;5093749;28;20068;-73
2022/05/19 14:30:40;;;;;;;14.10;7.85;;;;;;;;;;5103813;28;20754;-74
2022/05/19 14:33:08;;;;;;;9.73;6.22;;;;;;;;;;5087374;28;20043;-73
2022/05/19 14:35:46;;;;;;;10.77;7.30;;;;;;;;;;5096379;28;20080;-73
2022/05/19 14:38:30;;;;;;;11.35;6.68;;;;;;;;;;5091988;28;20040;-73
2022/05/19 14:43:49;;;;;;;10.55;6.47;;;;;;;;;;5095051;28;20040;-73
2022/05/19 14:46:15;;;;;;;12.52;7.35;;;;;;;;;;5086693;28;20036;-74
2022/05/19 14:48:43;;;;;;;10.95;6.03;;;;;;;;;;5091374;28;20486;-73
2022/05/19 14:51:14;;;;;;;10.05;6.32;;;;;;;;;;5081780;28;20040;-73
2022/05/19 14:53:43;;;;;;;14.20;8.30;;;;;;;;;;5099865;28;20540;-72
2022/05/19 14:56:35;;;;;;;11.23;7.18;;;;;;;;;;5073633;28;20044;-72
2022/05/19 14:59:15;;;;;;;9.60;7.03;;;;;;;;;;5076814;28;20586;-73
2022/05/19 15:01:42;;;;;;;8.98;6.78;;;;;;;;;;5094784;28;20044;-72
2022/05/19 15:04:08;;;;;;;10.95;6.28;;;;;;;;;;5090416;28;20120;-72
2022/05/19 15:06:35;;;;;;;9.95;6.97;;;;;;;;;;5084583;28;20036;-72